Strona główna
METAR-TAF:

METAR-TAF

Lotnisko :

Port lotniczy Heringsdorf

Heringsdorf, Niemcy

Szerokość geograficzna: 53-53N, Długość geograficzna: 014-09E, wysokość: 28 m

Aktualna obserwacja pogody

Raport powstał 36 minut temu, godzina 06:50 UTC
Wiatr 6 kt od wschodnio-północny wschód, zmienny między północno-północny wschód i wschód
Temperatura 17°C
Wilgotność 59%
Ciśnienie 1023 hPa
Widzialność 10 km lub więcej
Brak chmur poniżej 1500 m i brak chmur cumulonimbus

METAR: EDAH 230650Z 06006KT 030V090 CAVOK 17/09 Q1023

czas: 09:26 (07:26 UTC)

Prognoza

Raport powstał 17 godziny i 26 minut temu, godzina 14:00 UTC
Prognoza ważna od 22 godzina 15 UTC do 22 godzina 24 UTC
Wiatr 8 kt od północny wschód
Widzialność 10 km lub więcej
Brak chmur poniżej 1500 m i brak chmur cumulonimbus

TAF: EDAH 221400Z 2215/2224 05008KT CAVOK

Obserwacja i prognoza pogody dla ponad 4000 lotnisk (raport METAR i TAF).

Dostępne stacje oznaczono żółtymi i czerwonymi punktami na mapie.

Najedź kursorem aby zobaczyć nazwę stacji.

Kliknij aby zobaczyć obserwacje i prognozy pogody.

Aby zmienić mapę: kliknij na zielony przycisk z czarnym krzyżykiem, aby powiększyć; na zielony przycisk z myślnikiem, aby pomniejszyć; na zielone strzałki, aby przejść do map sąsiednich.


METAR-TAF: